Time;durP1;ratioP1;P1;durP2;ratioP2;P2;SDS_P1;SDS_P2;PMS_P1;PMS_P2;Temp;Humidity;BMP_temperature;BMP_pressure;BME280_temperature;BME280_humidity;BME280_pressure;Samples;Min_cycle;Max_cycle;Signal;HPM_P1;HPM_P2
2020/12/26 00:00:49;;;;;;;123.80;40.97;;;-3275.20;98.50;;;;;;5047690;28;20148;-76
2020/12/26 00:03:15;;;;;;;138.48;41.97;;;-3275.30;98.50;;;;;;5065543;28;20024;-75
2020/12/26 00:05:41;;;;;;;178.60;44.05;;;-3275.30;98.50;;;;;;5140736;22;20063;-67
2020/12/26 00:08:06;;;;;;;207.95;46.40;;;-3275.40;98.60;;;;;;5070971;28;20024;-67
2020/12/26 00:10:32;;;;;;;167.75;46.30;;;-3275.50;98.50;;;;;;5071739;28;20118;-68
2020/12/26 00:12:58;;;;;;;177.90;45.28;;;-3275.50;98.60;;;;;;5070967;28;20049;-68
2020/12/26 00:15:23;;;;;;;198.18;44.35;;;-3275.60;98.50;;;;;;5071184;28;20020;-67
2020/12/26 00:17:49;;;;;;;169.88;40.70;;;-3275.60;98.50;;;;;;5072987;28;20952;-67
2020/12/26 00:20:17;;;;;;;147.48;39.10;;;-3275.50;98.60;;;;;;5071720;28;20024;-69
2020/12/26 00:22:42;;;;;;;153.82;38.17;;;-3275.50;98.50;;;;;;5072617;28;20028;-67
2020/12/26 00:25:08;;;;;;;151.43;37.10;;;-3275.50;98.50;;;;;;5072195;28;20043;-68
2020/12/26 00:27:34;;;;;;;147.27;36.15;;;-3275.50;98.50;;;;;;5073168;28;20024;-68
2020/12/26 00:29:59;;;;;;;150.13;36.28;;;-3275.50;98.50;;;;;;5071611;28;20040;-67
2020/12/26 00:32:25;;;;;;;135.52;35.53;;;-3275.50;98.50;;;;;;5071706;28;20036;-68
2020/12/26 00:34:51;;;;;;;120.53;32.10;;;-3275.50;98.50;;;;;;5071992;28;20016;-67
2020/12/26 00:37:17;;;;;;;139.82;34.13;;;-3275.50;98.50;;;;;;5072783;28;20024;-69
2020/12/26 00:39:43;;;;;;;162.73;36.15;;;-3275.50;98.50;;;;;;5070809;28;20480;-68
2020/12/26 00:42:08;;;;;;;151.30;33.63;;;-3275.50;98.60;;;;;;5071635;28;20039;-67
2020/12/26 00:44:34;;;;;;;162.02;33.47;;;-3275.50;98.50;;;;;;5076313;28;20054;-66
2020/12/26 00:47:00;;;;;;;181.52;35.00;;;-3275.50;98.50;;;;;;5079890;28;20391;-67
2020/12/26 00:49:26;;;;;;;175.98;32.75;;;-3275.50;98.60;;;;;;5079887;28;20135;-67
2020/12/26 00:51:51;;;;;;;146.82;31.58;;;-3275.60;98.60;;;;;;5077975;28;20028;-67
2020/12/26 00:54:17;;;;;;;134.18;32.80;;;-3275.50;98.60;;;;;;5080919;28;20472;-66
2020/12/26 00:56:42;;;;;;;179.15;35.30;;;-3275.50;98.60;;;;;;5082832;28;20028;-68
2020/12/26 00:59:08;;;;;;;161.50;33.75;;;-3275.50;98.60;;;;;;5074711;28;20077;-67
2020/12/26 01:01:33;;;;;;;154.38;33.67;;;-3275.60;98.60;;;;;;5081270;28;20353;-67
2020/12/26 01:03:59;;;;;;;148.38;32.50;;;-3275.50;98.60;;;;;;5080750;28;20100;-66
2020/12/26 01:06:24;;;;;;;135.82;33.67;;;-3275.50;98.60;;;;;;5082117;28;20123;-66
2020/12/26 01:08:50;;;;;;;164.70;32.25;;;-3275.50;98.60;;;;;;5081559;28;20422;-67
2020/12/26 01:11:16;;;;;;;142.18;31.52;;;-3275.50;98.60;;;;;;5074938;28;20024;-67
2020/12/26 01:13:42;;;;;;;148.90;31.08;;;-3275.50;98.60;;;;;;5074245;28;20033;-66
2020/12/26 01:16:11;;;;;;;144.02;31.10;;;-3275.50;98.60;;;;;;5082105;28;20028;-66
2020/12/26 01:18:37;;;;;;;118.40;32.90;;;-3275.60;98.60;;;;;;5079145;28;20040;-66
2020/12/26 01:21:04;;;;;;;147.35;31.58;;;-3275.60;98.60;;;;;;5075002;28;20405;-67
2020/12/26 01:23:33;;;;;;;122.47;31.15;;;-3275.60;98.60;;;;;;5082382;28;20107;-67
2020/12/26 01:25:58;;;;;;;135.93;32.58;;;-3275.50;98.60;;;;;;5079565;28;20129;-68
2020/12/26 01:28:25;;;;;;;110.00;30.77;;;-3275.60;98.60;;;;;;5078811;28;20105;-67
2020/12/26 01:30:50;;;;;;;114.55;30.88;;;-3275.60;98.60;;;;;;5079016;28;20093;-67
2020/12/26 01:33:16;;;;;;;132.13;30.50;;;-3275.50;98.60;;;;;;5081126;28;20769;-66
2020/12/26 01:35:41;;;;;;;122.90;31.45;;;-3275.60;98.60;;;;;;5079448;28;20072;-67
2020/12/26 01:38:07;;;;;;;108.32;31.85;;;-3275.60;98.60;;;;;;5077642;28;20028;-67
2020/12/26 01:40:33;;;;;;;128.95;34.08;;;-3275.60;98.60;;;;;;5059413;28;20021;-66
2020/12/26 01:42:58;;;;;;;144.93;34.38;;;-3275.70;98.60;;;;;;5069148;28;20464;-66
2020/12/26 01:45:24;;;;;;;121.85;32.67;;;-3275.60;98.60;;;;;;5079805;28;20036;-67
2020/12/26 01:47:50;;;;;;;127.53;30.67;;;-3275.70;98.60;;;;;;5080190;28;20024;-66
2020/12/26 01:50:16;;;;;;;139.18;33.17;;;-3275.70;98.60;;;;;;5081119;28;20024;-66
2020/12/26 01:52:44;;;;;;;120.65;31.52;;;-3275.60;98.60;;;;;;5079551;28;20031;-67
2020/12/26 01:55:12;;;;;;;131.63;34.20;;;-3275.70;98.60;;;;;;5078089;28;20039;-67
2020/12/26 01:57:45;;;;;;;127.68;31.88;;;-3275.70;98.60;;;;;;5079142;28;20116;-66
2020/12/26 02:00:11;;;;;;;148.27;30.90;;;-3275.60;98.60;;;;;;5061408;28;20044;-67
2020/12/26 02:02:36;;;;;;;126.55;31.20;;;-3275.60;98.60;;;;;;5081521;28;20093;-68
2020/12/26 02:05:02;;;;;;;123.30;31.55;;;-3275.70;98.60;;;;;;5056008;28;20036;-66
2020/12/26 02:07:27;;;;;;;130.13;30.73;;;-3275.70;98.60;;;;;;5078718;28;20395;-67
2020/12/26 02:09:53;;;;;;;138.68;32.60;;;-3275.70;98.60;;;;;;5076787;28;20146;-68
2020/12/26 02:12:19;;;;;;;136.70;31.80;;;-3275.70;98.60;;;;;;5084009;28;20432;-66
2020/12/26 02:14:48;;;;;;;149.15;32.65;;;-3275.70;98.60;;;;;;5081851;28;20082;-66
2020/12/26 02:17:13;;;;;;;194.00;33.92;;;-3275.70;98.60;;;;;;5081254;28;20115;-66
2020/12/26 02:19:39;;;;;;;193.20;32.78;;;-3275.70;98.60;;;;;;5087167;28;20035;-66
2020/12/26 02:22:05;;;;;;;179.60;33.88;;;-3275.70;98.60;;;;;;5085291;28;20463;-66
2020/12/26 02:24:31;;;;;;;169.32;34.25;;;-3275.70;98.60;;;;;;5087288;28;20027;-67
2020/12/26 02:26:56;;;;;;;172.45;34.33;;;-3275.80;98.60;;;;;;5086580;28;20249;-67
2020/12/26 02:29:22;;;;;;;224.05;35.50;;;-3275.80;98.60;;;;;;5068998;28;20050;-66
2020/12/26 02:31:47;;;;;;;161.48;34.72;;;-3275.80;98.60;;;;;;5082837;28;20044;-67
2020/12/26 02:34:13;;;;;;;199.27;34.60;;;-3275.80;98.60;;;;;;5077106;28;20435;-66
2020/12/26 02:36:39;;;;;;;194.63;35.92;;;-3275.80;98.60;;;;;;5085268;28;20063;-66
2020/12/26 02:39:07;;;;;;;164.48;35.70;;;-3275.90;98.60;;;;;;5081779;28;20020;-64
2020/12/26 02:41:33;;;;;;;120.45;34.15;;;-3275.90;98.60;;;;;;5086512;28;20444;-65
2020/12/26 02:43:59;;;;;;;122.82;32.50;;;-3275.90;98.60;;;;;;5065883;28;20062;-66
2020/12/26 02:46:24;;;;;;;134.15;35.33;;;-3276.00;98.60;;;;;;5085418;28;20127;-67
2020/12/26 02:48:50;;;;;;;129.93;35.80;;;-3276.00;98.60;;;;;;5086719;28;20115;-66
2020/12/26 02:51:15;;;;;;;127.10;34.30;;;-3276.00;98.60;;;;;;5085741;28;20031;-67
2020/12/26 02:53:41;;;;;;;127.75;34.40;;;-3276.00;98.60;;;;;;5068509;28;20190;-66
2020/12/26 02:56:12;;;;;;;114.45;34.15;;;-3276.00;98.60;;;;;;5067161;28;20043;-66
2020/12/26 02:58:40;;;;;;;114.78;33.63;;;-3276.00;98.60;;;;;;5083966;28;20429;-66
2020/12/26 03:01:07;;;;;;;121.93;32.15;;;-3276.00;98.60;;;;;;5086590;28;20039;-66
2020/12/26 03:03:33;;;;;;;110.25;33.22;;;-3276.00;98.60;;;;;;5061571;28;20127;-66
2020/12/26 03:05:58;;;;;;;132.90;36.15;;;-3276.00;98.60;;;;;;5053052;28;20162;-67
2020/12/26 03:08:24;;;;;;;119.43;37.17;;;-3276.10;98.60;;;;;;5067424;28;20050;-66
2020/12/26 03:10:50;;;;;;;128.10;36.38;;;-3276.10;98.60;;;;;;5086432;28;20541;-67
2020/12/26 03:13:15;;;;;;;131.25;36.75;;;-3276.10;98.60;;;;;;5077540;28;20024;-67
2020/12/26 03:15:41;;;;;;;125.50;35.30;;;-3276.10;98.60;;;;;;5085719;28;20396;-67
2020/12/26 03:18:06;;;;;;;121.50;35.92;;;-3276.20;98.60;;;;;;5065360;28;20072;-67
2020/12/26 03:20:32;;;;;;;123.07;35.90;;;-3276.20;98.50;;;;;;5068638;28;20103;-66
2020/12/26 03:22:57;;;;;;;110.45;35.92;;;-3276.20;98.60;;;;;;5086560;28;20452;-67
2020/12/26 03:25:23;;;;;;;109.47;36.15;;;-3276.20;98.60;;;;;;5086801;28;20042;-68
2020/12/26 03:27:49;;;;;;;103.88;34.50;;;-3276.30;98.60;;;;;;5086030;28;20138;-67
2020/12/26 03:30:14;;;;;;;99.63;33.20;;;-3276.30;98.60;;;;;;5082117;28;20091;-66
2020/12/26 03:32:40;;;;;;;113.50;37.28;;;-3276.30;98.50;;;;;;5085173;28;20028;-66
2020/12/26 03:35:06;;;;;;;99.53;34.80;;;-3276.40;98.50;;;;;;5070171;28;20480;-66
2020/12/26 03:37:34;;;;;;;108.78;35.35;;;-3276.40;98.50;;;;;;5085745;28;20107;-66
2020/12/26 03:39:59;;;;;;;105.43;35.15;;;-3276.40;98.50;;;;;;5084852;28;20042;-66
2020/12/26 03:42:25;;;;;;;106.20;37.20;;;-3276.40;98.50;;;;;;5084652;28;20036;-66
2020/12/26 03:44:50;;;;;;;98.47;32.97;;;-3276.40;98.50;;;;;;5067590;28;20171;-67
2020/12/26 03:47:16;;;;;;;92.28;34.20;;;-3276.40;98.50;;;;;;5067479;28;20114;-66
2020/12/26 03:49:42;;;;;;;105.18;34.15;;;-3276.50;98.50;;;;;;5084715;28;20483;-67
2020/12/26 03:52:07;;;;;;;95.15;34.40;;;-3276.50;98.50;;;;;;5084393;28;20348;-66
2020/12/26 03:54:33;;;;;;;89.75;32.10;;;-3276.50;98.40;;;;;;5085715;28;20081;-66
2020/12/26 03:56:58;;;;;;;87.57;33.38;;;-3276.50;98.50;;;;;;5085944;28;20039;-67
2020/12/26 03:59:24;;;;;;;85.10;32.35;;;-3276.50;98.50;;;;;;5085767;28;20035;-66
2020/12/26 04:01:49;;;;;;;83.00;31.27;;;-3276.60;98.40;;;;;;5085807;28;20234;-67
2020/12/26 04:04:15;;;;;;;86.70;32.17;;;-3276.60;98.40;;;;;;5083945;28;20111;-67
2020/12/26 04:06:45;;;;;;;73.93;30.00;;;-3276.60;98.40;;;;;;5083802;28;20097;-66
2020/12/26 04:09:11;;;;;;;75.53;30.35;;;-3276.60;98.40;;;;;;5083783;28;20023;-67
2020/12/26 04:11:37;;;;;;;73.50;30.67;;;-3276.60;98.40;;;;;;5071683;28;20032;-67
2020/12/26 04:14:03;;;;;;;74.28;30.92;;;-3276.60;98.40;;;;;;5083535;28;20024;-67
2020/12/26 04:16:29;;;;;;;76.43;30.35;;;-3276.60;98.30;;;;;;5086504;28;20076;-67
2020/12/26 04:18:55;;;;;;;79.40;30.17;;;-3276.60;98.30;;;;;;5079734;28;20031;-66
2020/12/26 04:21:22;;;;;;;83.82;30.75;;;-3276.60;98.30;;;;;;5086503;28;20461;-67
2020/12/26 04:23:49;;;;;;;76.43;31.15;;;-3276.60;98.30;;;;;;5085113;28;20024;-66
2020/12/26 04:26:14;;;;;;;81.28;30.92;;;-3276.70;98.30;;;;;;5086150;28;20032;-66
2020/12/26 04:28:40;;;;;;;77.88;31.33;;;-3276.70;98.30;;;;;;5083874;28;20083;-66
2020/12/26 04:31:06;;;;;;;80.70;31.00;;;-3276.70;98.30;;;;;;5086601;28;20270;-67
2020/12/26 04:33:31;;;;;;;78.47;31.15;;;-3276.70;98.30;;;;;;5084262;28;20027;-67
2020/12/26 04:35:57;;;;;;;78.82;29.58;;;-3276.70;98.30;;;;;;5083506;28;20107;-66
2020/12/26 04:38:23;;;;;;;80.18;29.98;;;-3276.70;98.30;;;;;;5083568;28;20089;-66
2020/12/26 04:40:48;;;;;;;74.53;30.02;;;0.00;98.30;;;;;;5069823;28;20107;-67
2020/12/26 04:43:14;;;;;;;75.18;29.08;;;0.00;98.30;;;;;;5080408;28;20072;-67
2020/12/26 04:45:40;;;;;;;70.40;30.67;;;-3276.70;98.30;;;;;;5082404;28;20060;-68
2020/12/26 04:48:12;;;;;;;77.05;30.35;;;0.00;98.20;;;;;;5077417;28;20137;-67
2020/12/26 04:50:45;;;;;;;76.53;29.65;;;0.00;98.30;;;;;;5085931;28;20480;-66
2020/12/26 04:53:18;;;;;;;77.82;28.83;;;0.00;98.20;;;;;;5082875;28;20081;-67
2020/12/26 04:55:50;;;;;;;75.20;29.33;;;0.00;98.20;;;;;;5079731;28;20093;-68
2020/12/26 04:58:19;;;;;;;64.10;27.58;;;0.00;98.20;;;;;;5080182;28;20096;-66
2020/12/26 05:00:46;;;;;;;69.03;25.77;;;0.00;98.20;;;;;;5077472;28;20020;-67
2020/12/26 05:03:17;;;;;;;64.03;26.60;;;0.00;98.20;;;;;;5085039;28;20569;-66
2020/12/26 05:05:43;;;;;;;;;;;0.00;98.20;;;;;;5073231;28;20042;-66
2020/12/26 05:08:11;;;;;;;67.25;25.92;;;0.00;98.20;;;;;;5082450;28;20007;-67
2020/12/26 05:10:38;;;;;;;65.82;27.65;;;0.00;98.20;;;;;;5086079;28;20061;-66
2020/12/26 05:13:09;;;;;;;62.40;27.65;;;0.00;98.20;;;;;;5081905;28;20031;-67
2020/12/26 05:15:35;;;;;;;63.20;27.17;;;0.00;98.30;;;;;;5085514;28;20383;-67
2020/12/26 05:18:01;;;;;;;63.40;26.88;;;0.00;98.30;;;;;;5082655;28;20085;-67
2020/12/26 05:20:28;;;;;;;66.50;26.15;;;0.10;98.30;;;;;;5084451;28;20024;-67
2020/12/26 05:23:10;;;;;;;64.68;26.27;;;0.10;98.20;;;;;;5079715;28;20059;-67
2020/12/26 05:25:40;;;;;;;57.85;25.50;;;0.10;98.30;;;;;;5084626;28;20031;-68
2020/12/26 05:28:19;;;;;;;76.38;25.98;;;0.10;98.20;;;;;;5085126;28;20071;-66
2020/12/26 05:30:47;;;;;;;56.22;25.13;;;0.10;98.30;;;;;;5082160;28;20093;-67
2020/12/26 05:33:14;;;;;;;46.30;23.27;;;0.10;98.30;;;;;;5081987;28;20020;-68
2020/12/26 05:35:51;;;;;;;52.63;23.15;;;0.10;98.30;;;;;;5082661;28;20388;-66
2020/12/26 05:38:21;;;;;;;51.22;22.48;;;0.10;98.20;;;;;;5077325;28;20055;-66
2020/12/26 05:40:53;;;;;;;48.95;21.27;;;0.10;98.20;;;;;;5085860;28;20094;-67
2020/12/26 05:43:21;;;;;;;46.60;20.83;;;0.10;98.20;;;;;;5084717;28;20028;-66
2020/12/26 05:45:48;;;;;;;55.60;20.80;;;0.10;98.20;;;;;;5084770;28;20028;-66
2020/12/26 05:48:16;;;;;;;53.08;21.70;;;0.10;98.20;;;;;;5081398;28;20021;-68
2020/12/26 05:50:42;;;;;;;61.13;20.85;;;0.10;98.30;;;;;;5087510;28;20369;-67
2020/12/26 05:53:11;;;;;;;54.70;21.42;;;0.00;98.20;;;;;;5088532;28;20109;-67
2020/12/26 05:55:45;;;;;;;48.80;20.77;;;0.00;98.20;;;;;;5089165;28;20475;-66
2020/12/26 05:58:12;;;;;;;60.38;21.58;;;0.00;98.30;;;;;;5084698;28;20032;-67
2020/12/26 06:00:40;;;;;;;57.33;22.85;;;0.00;98.30;;;;;;5086407;28;20035;-67
2020/12/26 06:03:29;;;;;;;61.55;23.60;;;0.10;98.30;;;;;;5086457;28;20404;-66
2020/12/26 06:05:57;;;;;;;58.08;22.17;;;0.10;98.30;;;;;;5083690;28;20032;-66
2020/12/26 06:08:23;;;;;;;50.33;21.75;;;0.10;98.30;;;;;;5063361;28;20563;-67
2020/12/26 06:10:59;;;;;;;51.67;20.60;;;0.10;98.30;;;;;;5085128;28;20089;-67
2020/12/26 06:13:27;;;;;;;52.25;19.77;;;0.10;98.30;;;;;;5080701;28;20028;-66
2020/12/26 06:15:55;;;;;;;42.97;18.73;;;0.10;98.30;;;;;;5087980;28;20101;-66
2020/12/26 06:18:24;;;;;;;37.05;18.55;;;0.20;98.30;;;;;;5088304;28;20372;-68
2020/12/26 06:20:53;;;;;;;46.40;18.70;;;0.20;98.30;;;;;;5087879;28;20028;-66
2020/12/26 06:23:21;;;;;;;47.25;18.92;;;0.20;98.30;;;;;;5085935;28;20024;-65
2020/12/26 06:25:48;;;;;;;40.63;18.17;;;0.20;98.20;;;;;;5089122;28;20020;-68
2020/12/26 06:28:35;;;;;;;40.50;18.48;;;0.20;98.30;;;;;;5082879;28;20264;-68
2020/12/26 06:31:04;;;;;;;37.53;16.88;;;0.20;98.20;;;;;;5053591;28;20254;-68
2020/12/26 06:33:36;;;;;;;37.72;16.85;;;0.30;98.30;;;;;;5054442;28;20017;-67
2020/12/26 06:36:04;;;;;;;38.47;17.52;;;0.20;98.20;;;;;;5054828;28;20025;-68
2020/12/26 06:38:30;;;;;;;34.58;16.45;;;0.20;98.20;;;;;;5053980;28;20048;-67
2020/12/26 06:41:18;;;;;;;30.95;15.77;;;0.20;98.20;;;;;;5054161;28;20103;-68
2020/12/26 06:43:57;;;;;;;35.35;16.25;;;0.30;98.20;;;;;;5054250;28;20493;-67
2020/12/26 06:46:22;;;;;;;33.17;15.07;;;0.30;98.20;;;;;;5053201;28;20766;-68
2020/12/26 06:48:48;;;;;;;29.35;15.60;;;0.30;98.20;;;;;;5056015;28;20174;-66
2020/12/26 06:51:24;;;;;;;33.65;13.95;;;0.30;98.10;;;;;;5054018;28;20024;-67
2020/12/26 06:53:50;;;;;;;31.42;14.32;;;0.30;98.10;;;;;;5053055;28;20885;-67
2020/12/26 06:56:34;;;;;;;29.52;14.23;;;0.30;98.10;;;;;;5052697;28;20236;-69
2020/12/26 06:59:10;;;;;;;28.35;14.52;;;0.30;98.10;;;;;;5035616;28;20439;-69
2020/12/26 07:01:41;;;;;;;32.42;14.35;;;0.30;98.10;;;;;;5053120;28;20103;-67
2020/12/26 07:04:06;;;;;;;;;;;0.30;98.00;;;;;;5055070;28;20377;-66
2020/12/26 07:06:48;;;;;;;26.60;12.80;;;0.30;98.00;;;;;;5057017;28;19924;-68
2020/12/26 07:09:17;;;;;;;32.15;14.32;;;0.40;98.00;;;;;;5052235;28;20081;-67
2020/12/26 07:11:50;;;;;;;26.20;14.43;;;0.30;98.00;;;;;;5053897;28;20560;-68
2020/12/26 07:14:31;;;;;;;32.25;14.75;;;0.30;98.00;;;;;;5053515;28;20073;-67
2020/12/26 07:17:04;;;;;;;34.47;13.85;;;0.30;98.00;;;;;;5052272;28;20052;-66
2020/12/26 07:19:32;;;;;;;35.83;15.60;;;0.30;98.00;;;;;;5052207;28;20029;-67
2020/12/26 07:22:31;;;;;;;25.35;14.25;;;0.30;98.00;;;;;;5054369;28;20443;-66
2020/12/26 07:25:02;;;;;;;33.50;14.50;;;0.40;98.00;;;;;;5050287;28;20040;-66
2020/12/26 07:27:32;;;;;;;31.05;14.68;;;0.40;98.00;;;;;;5066106;28;20043;-67
2020/12/26 07:30:05;;;;;;;33.03;14.23;;;0.40;98.00;;;;;;5063895;28;20032;-67
2020/12/26 07:32:47;;;;;;;29.50;13.48;;;0.40;98.00;;;;;;5065254;28;20020;-65
2020/12/26 07:35:19;;;;;;;24.33;13.50;;;0.40;98.10;;;;;;5066755;28;20073;-66
2020/12/26 07:37:59;;;;;;;30.05;13.57;;;0.40;98.00;;;;;;5064275;28;20024;-67
2020/12/26 07:40:28;;;;;;;30.17;14.25;;;0.40;98.00;;;;;;5066269;28;20071;-66
2020/12/26 07:42:54;;;;;;;27.85;12.65;;;0.40;98.00;;;;;;5047810;28;20143;-67
2020/12/26 07:45:21;;;;;;;30.13;13.27;;;0.50;98.00;;;;;;5066455;28;20041;-66
2020/12/26 07:47:50;;;;;;;26.63;13.40;;;0.50;98.00;;;;;;5065819;28;20539;-66
2020/12/26 07:50:18;;;;;;;30.83;12.98;;;0.50;98.00;;;;;;5066536;28;20028;-66
2020/12/26 07:52:51;;;;;;;28.40;13.15;;;0.50;98.00;;;;;;5047590;28;20025;-67
2020/12/26 07:55:17;;;;;;;28.85;12.70;;;0.50;98.00;;;;;;5065722;28;20350;-67
2020/12/26 07:57:43;;;;;;;27.52;12.50;;;0.60;98.00;;;;;;5065333;28;20122;-67
2020/12/26 08:00:23;;;;;;;18.95;12.20;;;0.60;98.00;;;;;;5066176;28;20111;-66
2020/12/26 08:02:51;;;;;;;27.25;12.95;;;0.60;98.00;;;;;;5061031;28;20024;-66
2020/12/26 08:05:23;;;;;;;22.02;11.43;;;0.60;98.00;;;;;;5065797;28;20036;-67
2020/12/26 08:07:49;;;;;;;22.05;11.32;;;0.60;98.00;;;;;;5063679;28;20165;-66
2020/12/26 08:10:16;;;;;;;23.60;10.27;;;0.60;98.00;;;;;;5064832;28;20107;-68
2020/12/26 08:13:17;;;;;;;27.20;11.73;;;0.60;98.00;;;;;;5070086;28;20283;-66
2020/12/26 08:15:43;;;;;;;20.25;11.20;;;0.60;98.00;;;;;;5055406;28;20037;-67
2020/12/26 08:18:09;;;;;;;31.92;10.18;;;0.70;98.00;;;;;;5071923;28;20088;-66
2020/12/26 08:20:35;;;;;;;19.92;9.90;;;0.70;98.00;;;;;;5059265;28;20478;-67
2020/12/26 08:23:01;;;;;;;26.08;10.90;;;0.70;98.00;;;;;;5063422;28;20551;-66
2020/12/26 08:25:28;;;;;;;22.52;10.70;;;0.70;98.00;;;;;;5065310;28;20028;-66
2020/12/26 08:27:55;;;;;;;20.27;10.82;;;0.80;98.00;;;;;;5053302;28;20053;-66
2020/12/26 08:30:29;;;;;;;18.92;10.00;;;0.80;98.00;;;;;;5064237;28;20032;-67
2020/12/26 08:33:01;;;;;;;24.67;9.75;;;0.80;97.90;;;;;;5064241;28;20048;-66
2020/12/26 08:35:29;;;;;;;18.92;9.25;;;0.80;97.90;;;;;;5064897;28;20058;-66
2020/12/26 08:38:18;;;;;;;16.23;8.65;;;0.90;97.90;;;;;;5064231;28;20077;-67
2020/12/26 08:40:52;;;;;;;16.13;8.90;;;0.90;97.80;;;;;;5060349;28;20033;-67
2020/12/26 08:43:17;;;;;;;21.60;8.90;;;1.00;97.80;;;;;;5063109;28;20033;-66
2020/12/26 08:45:43;;;;;;;15.85;7.57;;;1.00;97.70;;;;;;5064076;28;20043;-67
2020/12/26 08:48:19;;;;;;;18.20;7.63;;;1.00;97.60;;;;;;5054734;28;20048;-66
2020/12/26 08:50:56;;;;;;;13.88;7.13;;;1.00;97.50;;;;;;5053820;28;20024;-66
2020/12/26 08:53:23;;;;;;;15.32;7.38;;;1.10;97.50;;;;;;5064510;28;20024;-66
2020/12/26 08:55:54;;;;;;;16.88;7.32;;;1.10;97.40;;;;;;5062982;28;20025;-66
2020/12/26 08:58:30;;;;;;;15.55;7.28;;;1.10;97.30;;;;;;5051832;28;20092;-66
2020/12/26 09:00:58;;;;;;;17.38;7.22;;;1.20;97.20;;;;;;5064408;28;20086;-66
2020/12/26 09:03:25;;;;;;;11.90;5.95;;;1.10;97.20;;;;;;5064712;28;20419;-67
2020/12/26 09:05:51;;;;;;;17.58;6.13;;;1.20;97.10;;;;;;5058565;28;20059;-66
2020/12/26 09:08:18;;;;;;;14.05;7.15;;;1.20;97.10;;;;;;5056960;28;20103;-67
2020/12/26 09:10:54;;;;;;;14.20;5.63;;;1.20;97.10;;;;;;5054831;28;20025;-67
2020/12/26 09:13:19;;;;;;;18.73;6.80;;;1.20;97.10;;;;;;5062027;28;20021;-66
2020/12/26 09:15:56;;;;;;;16.15;6.07;;;1.20;97.10;;;;;;5064311;28;20032;-67
2020/12/26 09:18:24;;;;;;;12.50;6.18;;;1.30;97.10;;;;;;5062792;28;20031;-66
2020/12/26 09:20:59;;;;;;;11.63;6.28;;;1.20;97.10;;;;;;5063309;28;20255;-67
2020/12/26 09:23:37;;;;;;;21.73;6.47;;;1.30;97.00;;;;;;5061970;28;20025;-67
2020/12/26 09:26:12;;;;;;;12.70;6.18;;;1.30;97.00;;;;;;5061384;28;20104;-67
2020/12/26 09:28:44;;;;;;;17.08;7.00;;;1.30;97.00;;;;;;5066791;28;20029;-67
2020/12/26 09:31:14;;;;;;;12.18;5.80;;;1.30;96.90;;;;;;5066714;28;20452;-67
2020/12/26 09:33:40;;;;;;;14.27;6.57;;;1.30;97.00;;;;;;5065950;28;20033;-67
2020/12/26 09:36:08;;;;;;;11.60;5.90;;;1.30;97.00;;;;;;5050361;28;20029;-67
2020/12/26 09:38:34;;;;;;;15.95;6.15;;;1.30;97.00;;;;;;5067761;28;20028;-67
2020/12/26 09:41:18;;;;;;;10.55;5.78;;;1.40;97.00;;;;;;5068641;28;20173;-67
2020/12/26 09:43:45;;;;;;;15.60;5.72;;;1.40;96.90;;;;;;5062376;28;20040;-67
2020/12/26 09:46:11;;;;;;;12.20;5.85;;;1.40;96.90;;;;;;5057690;28;20073;-66
2020/12/26 09:48:37;;;;;;;16.70;6.55;;;1.50;96.90;;;;;;5064764;28;20154;-66
2020/12/26 09:51:04;;;;;;;12.52;6.05;;;1.60;96.80;;;;;;5068827;28;20173;-66
2020/12/26 09:53:29;;;;;;;11.98;5.68;;;1.60;96.70;;;;;;5066572;28;20052;-67
2020/12/26 09:55:55;;;;;;;11.20;5.50;;;1.60;96.60;;;;;;5068628;28;20071;-66
2020/12/26 09:58:20;;;;;;;13.20;5.45;;;1.70;96.60;;;;;;5067194;28;20142;-66
2020/12/26 10:00:46;;;;;;;11.82;5.60;;;1.70;96.40;;;;;;5068542;28;20017;-67
2020/12/26 10:03:12;;;;;;;12.73;5.45;;;1.70;96.50;;;;;;5066504;28;20442;-67
2020/12/26 10:05:37;;;;;;;8.10;4.85;;;1.60;96.40;;;;;;5049149;28;20028;-66
2020/12/26 10:08:03;;;;;;;12.77;5.45;;;1.70;96.30;;;;;;5067270;28;20497;-66
2020/12/26 10:10:29;;;;;;;8.88;5.10;;;1.70;96.30;;;;;;5066405;28;20132;-66
2020/12/26 10:12:54;;;;;;;11.55;5.35;;;1.80;96.30;;;;;;5067633;28;20029;-67
2020/12/26 10:15:20;;;;;;;17.92;5.88;;;1.80;96.30;;;;;;5067156;28;20357;-67
2020/12/26 10:17:46;;;;;;;11.88;5.20;;;1.80;96.40;;;;;;5048684;28;20025;-67
2020/12/26 10:20:11;;;;;;;14.48;5.07;;;1.80;96.30;;;;;;5065006;28;20059;-67
2020/12/26 10:22:37;;;;;;;9.80;4.93;;;1.90;96.30;;;;;;5060087;28;20116;-67
2020/12/26 10:25:03;;;;;;;11.50;5.00;;;1.90;96.20;;;;;;5061155;28;20036;-66
2020/12/26 10:27:28;;;;;;;13.60;5.30;;;1.90;96.10;;;;;;5065544;28;20028;-67
2020/12/26 10:29:54;;;;;;;12.07;6.47;;;1.90;96.00;;;;;;5063899;28;20059;-67
2020/12/26 10:32:20;;;;;;;11.90;5.53;;;2.00;96.00;;;;;;5085841;28;20017;-66
2020/12/26 10:34:45;;;;;;;10.15;5.68;;;2.00;95.90;;;;;;5067741;28;20021;-66
2020/12/26 10:37:15;;;;;;;12.57;6.03;;;2.00;95.90;;;;;;5058905;28;20090;-67
2020/12/26 10:39:41;;;;;;;10.60;4.93;;;2.10;95.90;;;;;;5079299;28;20040;-66
2020/12/26 10:42:06;;;;;;;12.18;6.00;;;2.10;95.90;;;;;;5056732;28;20451;-68
2020/12/26 10:44:32;;;;;;;14.80;6.35;;;2.10;95.90;;;;;;5061582;28;20490;-67
2020/12/26 10:46:58;;;;;;;11.60;6.60;;;2.10;95.80;;;;;;5067727;28;20040;-68
2020/12/26 10:49:23;;;;;;;12.38;6.05;;;2.10;95.90;;;;;;5072236;28;20435;-67
2020/12/26 10:51:49;;;;;;;11.55;6.25;;;2.10;95.90;;;;;;5068278;28;20079;-67
2020/12/26 10:54:15;;;;;;;12.13;6.35;;;2.10;95.70;;;;;;5060345;28;20441;-67
2020/12/26 10:56:45;;;;;;;11.02;5.45;;;2.20;95.90;;;;;;5065532;28;20400;-66
2020/12/26 10:59:12;;;;;;;13.15;6.90;;;2.20;95.90;;;;;;5057238;28;20032;-67
2020/12/26 11:01:37;;;;;;;12.52;6.15;;;2.20;95.70;;;;;;5065784;28;20039;-68
2020/12/26 11:04:03;;;;;;;11.90;6.82;;;2.20;95.70;;;;;;5072502;28;20036;-69
2020/12/26 11:06:29;;;;;;;9.70;5.78;;;2.30;95.60;;;;;;5071557;28;20274;-68
2020/12/26 11:08:54;;;;;;;10.35;6.47;;;2.40;95.60;;;;;;5049994;28;20040;-69
2020/12/26 11:11:20;;;;;;;11.07;6.55;;;2.40;95.40;;;;;;5062845;28;20386;-68
2020/12/26 11:13:45;;;;;;;14.45;7.57;;;2.40;95.40;;;;;;5056517;28;20104;-68
2020/12/26 11:16:15;;;;;;;11.05;6.68;;;2.40;95.50;;;;;;5075793;28;20483;-68
2020/12/26 11:18:42;;;;;;;12.52;6.55;;;2.50;95.40;;;;;;5069422;28;20032;-68
2020/12/26 11:21:08;;;;;;;10.98;6.10;;;2.50;95.20;;;;;;5040877;28;20016;-67
2020/12/26 11:23:34;;;;;;;13.02;7.50;;;2.60;95.20;;;;;;5065249;28;20039;-68
2020/12/26 11:25:59;;;;;;;11.70;6.53;;;2.60;95.10;;;;;;5067739;28;20024;-68
2020/12/26 11:28:25;;;;;;;13.82;7.32;;;2.60;95.20;;;;;;5050933;28;20118;-67
2020/12/26 11:30:50;;;;;;;15.00;7.32;;;2.60;95.10;;;;;;5060369;28;20085;-67
2020/12/26 11:33:16;;;;;;;13.05;6.90;;;2.70;95.10;;;;;;5055268;28;20023;-67
2020/12/26 11:35:42;;;;;;;16.20;6.97;;;2.70;95.10;;;;;;5074703;28;20484;-68
2020/12/26 11:38:08;;;;;;;10.10;6.95;;;2.70;94.90;;;;;;5071013;28;20444;-67
2020/12/26 11:40:34;;;;;;;10.93;6.68;;;2.70;94.70;;;;;;5049729;28;20036;-67
2020/12/26 11:42:59;;;;;;;11.88;6.57;;;2.80;94.70;;;;;;5063407;28;20430;-68
2020/12/26 11:45:25;;;;;;;16.38;7.50;;;2.80;94.60;;;;;;5065448;28;20108;-68
2020/12/26 11:47:50;;;;;;;10.52;7.03;;;2.80;94.70;;;;;;5063031;28;20174;-68
2020/12/26 11:50:16;;;;;;;10.68;7.25;;;2.80;94.80;;;;;;5059851;28;20025;-67
2020/12/26 11:52:41;;;;;;;18.55;7.53;;;2.80;94.60;;;;;;5051143;28;20166;-67
2020/12/26 11:55:07;;;;;;;11.40;6.70;;;2.80;94.50;;;;;;5045696;28;20021;-68
2020/12/26 11:57:33;;;;;;;15.93;7.25;;;2.80;94.50;;;;;;5070519;28;20044;-69
2020/12/26 11:59:58;;;;;;;13.77;8.07;;;2.80;94.40;;;;;;5064754;28;20039;-67
2020/12/26 12:02:24;;;;;;;12.55;7.75;;;2.80;94.70;;;;;;5060720;28;20075;-68
2020/12/26 12:04:49;;;;;;;14.40;7.97;;;2.80;94.60;;;;;;5105759;22;20109;-72
2020/12/26 12:07:15;;;;;;;14.27;7.85;;;2.90;94.70;;;;;;5060593;28;20540;-69
2020/12/26 12:09:40;;;;;;;12.40;7.65;;;2.90;94.60;;;;;;5059249;28;20032;-66
2020/12/26 12:12:07;;;;;;;13.48;7.50;;;2.90;94.40;;;;;;5062088;28;20103;-68
2020/12/26 12:14:33;;;;;;;12.05;7.28;;;2.90;94.30;;;;;;5048731;28;20035;-67
2020/12/26 12:16:58;;;;;;;13.90;7.85;;;2.90;94.20;;;;;;5043873;28;20478;-67
2020/12/26 12:19:24;;;;;;;12.15;7.50;;;3.00;94.40;;;;;;5047333;28;20142;-68
2020/12/26 12:21:49;;;;;;;12.70;7.03;;;3.10;94.00;;;;;;5032296;28;20037;-69
2020/12/26 12:24:15;;;;;;;11.65;7.25;;;3.10;93.90;;;;;;5029249;28;20124;-68
2020/12/26 12:26:41;;;;;;;11.45;7.35;;;3.10;93.70;;;;;;5046376;28;20033;-69